sensor_id;sensor_type;location;lat;lon;timestamp;pressure;altitude;pressure_sealevel;temperature;humidity
11806;BME280;5960;42.602;23.482;2022-10-14T00:02:24;93750.13;;;12.62;66.44
11806;BME280;5960;42.602;23.482;2022-10-14T00:04:51;93741.53;;;12.54;67.06
11806;BME280;5960;42.602;23.482;2022-10-14T00:07:17;93743.31;;;12.46;67.88
11806;BME280;5960;42.602;23.482;2022-10-14T00:09:44;93742.38;;;12.54;67.97
11806;BME280;5960;42.602;23.482;2022-10-14T00:12:12;93737.84;;;12.48;67.83
11806;BME280;5960;42.602;23.482;2022-10-14T00:14:39;93737.00;;;12.41;68.71
11806;BME280;5960;42.602;23.482;2022-10-14T00:17:06;93726.13;;;12.29;69.32
11806;BME280;5960;42.602;23.482;2022-10-14T00:19:33;93736.06;;;12.27;70.02
11806;BME280;5960;42.602;23.482;2022-10-14T00:22:00;93717.97;;;12.24;70.38
11806;BME280;5960;42.602;23.482;2022-10-14T00:24:27;93731.97;;;12.17;71.10
11806;BME280;5960;42.602;23.482;2022-10-14T00:26:54;93717.94;;;12.17;71.03
11806;BME280;5960;42.602;23.482;2022-10-14T00:29:22;93720.53;;;12.10;71.44
11806;BME280;5960;42.602;23.482;2022-10-14T00:31:49;93719.19;;;12.21;71.22
11806;BME280;5960;42.602;23.482;2022-10-14T00:34:18;93725.84;;;12.17;71.39
11806;BME280;5960;42.602;23.482;2022-10-14T00:36:44;93727.06;;;12.14;71.86
11806;BME280;5960;42.602;23.482;2022-10-14T00:39:11;93729.44;;;12.09;71.67
11806;BME280;5960;42.602;23.482;2022-10-14T00:41:40;93727.19;;;12.06;72.11
11806;BME280;5960;42.602;23.482;2022-10-14T00:47:14;93728.50;;;11.95;73.02
11806;BME280;5960;42.602;23.482;2022-10-14T00:49:41;93725.19;;;11.86;73.29
11806;BME280;5960;42.602;23.482;2022-10-14T00:52:11;93715.41;;;11.87;73.27
11806;BME280;5960;42.602;23.482;2022-10-14T00:54:41;93717.94;;;11.95;73.39
11806;BME280;5960;42.602;23.482;2022-10-14T00:57:10;93712.22;;;11.92;73.79
11806;BME280;5960;42.602;23.482;2022-10-14T00:59:37;93706.44;;;11.81;74.33
11806;BME280;5960;42.602;23.482;2022-10-14T01:02:04;93698.72;;;11.80;74.38
11806;BME280;5960;42.602;23.482;2022-10-14T01:04:33;93711.56;;;11.83;74.23
11806;BME280;5960;42.602;23.482;2022-10-14T01:07:06;93710.94;;;11.81;74.62
11806;BME280;5960;42.602;23.482;2022-10-14T01:09:40;93714.56;;;11.80;74.80
11806;BME280;5960;42.602;23.482;2022-10-14T01:12:13;93693.44;;;11.80;75.21
11806;BME280;5960;42.602;23.482;2022-10-14T01:14:46;93693.78;;;11.70;75.63
11806;BME280;5960;42.602;23.482;2022-10-14T01:17:25;93685.59;;;11.65;75.72
11806;BME280;5960;42.602;23.482;2022-10-14T01:23:09;93673.00;;;11.60;75.84
11806;BME280;5960;42.602;23.482;2022-10-14T01:25:50;93681.06;;;11.58;75.82
11806;BME280;5960;42.602;23.482;2022-10-14T01:28:25;93674.22;;;11.64;75.72
11806;BME280;5960;42.602;23.482;2022-10-14T01:30:59;93670.56;;;11.65;76.02
11806;BME280;5960;42.602;23.482;2022-10-14T01:33:32;93675.84;;;11.65;76.25
11806;BME280;5960;42.602;23.482;2022-10-14T01:36:02;93669.56;;;11.66;75.65
11806;BME280;5960;42.602;23.482;2022-10-14T01:38:35;93667.56;;;11.68;76.26
11806;BME280;5960;42.602;23.482;2022-10-14T01:41:06;93658.78;;;11.61;76.02
11806;BME280;5960;42.602;23.482;2022-10-14T01:43:35;93653.94;;;11.65;76.38
11806;BME280;5960;42.602;23.482;2022-10-14T01:46:05;93667.31;;;11.63;76.05
11806;BME280;5960;42.602;23.482;2022-10-14T01:48:37;93654.00;;;11.71;76.17
11806;BME280;5960;42.602;23.482;2022-10-14T01:51:08;93658.25;;;11.72;76.19
11806;BME280;5960;42.602;23.482;2022-10-14T01:53:39;93655.44;;;11.74;76.00
11806;BME280;5960;42.602;23.482;2022-10-14T01:56:08;93643.69;;;11.77;75.73
11806;BME280;5960;42.602;23.482;2022-10-14T01:58:38;93648.81;;;11.85;75.45
11806;BME280;5960;42.602;23.482;2022-10-14T02:01:08;93650.44;;;11.86;75.89
11806;BME280;5960;42.602;23.482;2022-10-14T02:03:39;93655.41;;;11.96;75.66
11806;BME280;5960;42.602;23.482;2022-10-14T02:06:10;93662.19;;;12.05;75.55
11806;BME280;5960;42.602;23.482;2022-10-14T02:08:47;93655.16;;;12.19;74.77
11806;BME280;5960;42.602;23.482;2022-10-14T02:11:18;93655.81;;;12.28;74.08
11806;BME280;5960;42.602;23.482;2022-10-14T02:14:01;93652.44;;;12.41;73.58
11806;BME280;5960;42.602;23.482;2022-10-14T02:16:36;93655.72;;;12.43;73.04
11806;BME280;5960;42.602;23.482;2022-10-14T02:19:09;93654.94;;;12.49;73.33
11806;BME280;5960;42.602;23.482;2022-10-14T02:21:43;93640.09;;;12.48;72.52
11806;BME280;5960;42.602;23.482;2022-10-14T02:24:17;93642.09;;;12.39;72.50
11806;BME280;5960;42.602;23.482;2022-10-14T02:26:47;93652.44;;;12.41;73.35
11806;BME280;5960;42.602;23.482;2022-10-14T02:29:16;93649.19;;;12.39;73.39
11806;BME280;5960;42.602;23.482;2022-10-14T02:31:47;93652.91;;;12.51;72.94
11806;BME280;5960;42.602;23.482;2022-10-14T02:34:18;93646.81;;;12.57;72.68
11806;BME280;5960;42.602;23.482;2022-10-14T02:36:47;93647.91;;;12.70;72.15
11806;BME280;5960;42.602;23.482;2022-10-14T02:39:19;93652.19;;;12.71;72.31
11806;BME280;5960;42.602;23.482;2022-10-14T02:41:47;93654.44;;;12.74;70.91
11806;BME280;5960;42.602;23.482;2022-10-14T02:44:13;93655.22;;;12.74;70.52
11806;BME280;5960;42.602;23.482;2022-10-14T02:46:41;93657.25;;;12.72;70.95
11806;BME280;5960;42.602;23.482;2022-10-14T02:49:10;93649.34;;;12.79;70.77
11806;BME280;5960;42.602;23.482;2022-10-14T02:51:37;93652.41;;;12.76;71.11
11806;BME280;5960;42.602;23.482;2022-10-14T02:54:04;93644.59;;;12.54;71.44
11806;BME280;5960;42.602;23.482;2022-10-14T02:56:31;93637.88;;;12.58;71.43
11806;BME280;5960;42.602;23.482;2022-10-14T02:58:57;93641.97;;;12.54;71.75
11806;BME280;5960;42.602;23.482;2022-10-14T03:01:24;93637.97;;;12.72;71.51
11806;BME280;5960;42.602;23.482;2022-10-14T03:03:51;93633.84;;;12.69;71.39
11806;BME280;5960;42.602;23.482;2022-10-14T03:06:19;93633.50;;;12.79;71.27
11806;BME280;5960;42.602;23.482;2022-10-14T03:08:46;93633.91;;;12.76;71.04
11806;BME280;5960;42.602;23.482;2022-10-14T03:11:12;93642.88;;;12.88;70.87
11806;BME280;5960;42.602;23.482;2022-10-14T03:13:39;93646.53;;;12.87;70.18
11806;BME280;5960;42.602;23.482;2022-10-14T03:16:06;93642.03;;;12.74;70.64
11806;BME280;5960;42.602;23.482;2022-10-14T03:18:33;93641.59;;;12.71;71.69
11806;BME280;5960;42.602;23.482;2022-10-14T03:21:00;93640.81;;;12.77;71.50
11806;BME280;5960;42.602;23.482;2022-10-14T03:23:28;93640.03;;;12.90;70.42
11806;BME280;5960;42.602;23.482;2022-10-14T03:25:54;93641.84;;;12.76;70.14
11806;BME280;5960;42.602;23.482;2022-10-14T03:28:21;93645.38;;;12.48;71.23
11806;BME280;5960;42.602;23.482;2022-10-14T03:30:48;93635.44;;;12.50;71.04
11806;BME280;5960;42.602;23.482;2022-10-14T03:33:14;93631.94;;;12.49;71.53
11806;BME280;5960;42.602;23.482;2022-10-14T03:35:41;93629.66;;;12.40;71.55
11806;BME280;5960;42.602;23.482;2022-10-14T03:38:08;93626.75;;;12.28;71.78
11806;BME280;5960;42.602;23.482;2022-10-14T03:40:36;93630.19;;;12.22;71.86
11806;BME280;5960;42.602;23.482;2022-10-14T03:43:03;93627.16;;;12.25;72.19
11806;BME280;5960;42.602;23.482;2022-10-14T03:45:30;93620.22;;;12.17;72.31
11806;BME280;5960;42.602;23.482;2022-10-14T03:47:56;93623.16;;;12.00;72.82
11806;BME280;5960;42.602;23.482;2022-10-14T03:50:23;93619.16;;;12.11;73.14
11806;BME280;5960;42.602;23.482;2022-10-14T03:52:50;93620.22;;;12.24;72.97
11806;BME280;5960;42.602;23.482;2022-10-14T03:55:17;93621.47;;;12.28;72.41
11806;BME280;5960;42.602;23.482;2022-10-14T03:57:45;93630.81;;;12.24;72.90
11806;BME280;5960;42.602;23.482;2022-10-14T04:00:13;93624.56;;;12.31;73.03
11806;BME280;5960;42.602;23.482;2022-10-14T04:02:39;93620.56;;;12.42;72.80
11806;BME280;5960;42.602;23.482;2022-10-14T04:05:07;93614.06;;;12.45;72.51
11806;BME280;5960;42.602;23.482;2022-10-14T04:07:34;93607.75;;;12.46;72.37
11806;BME280;5960;42.602;23.482;2022-10-14T04:10:01;93615.09;;;12.51;72.17
11806;BME280;5960;42.602;23.482;2022-10-14T04:12:28;93614.28;;;12.50;71.32
11806;BME280;5960;42.602;23.482;2022-10-14T04:14:56;93607.59;;;12.54;71.51
11806;BME280;5960;42.602;23.482;2022-10-14T04:17:23;93612.06;;;12.60;71.27
11806;BME280;5960;42.602;23.482;2022-10-14T04:19:51;93612.69;;;12.62;70.31
11806;BME280;5960;42.602;23.482;2022-10-14T04:22:18;93607.41;;;12.62;70.51
11806;BME280;5960;42.602;23.482;2022-10-14T04:24:47;93614.31;;;12.63;70.34
11806;BME280;5960;42.602;23.482;2022-10-14T04:27:13;93612.69;;;12.62;67.86
11806;BME280;5960;42.602;23.482;2022-10-14T04:29:40;93606.78;;;12.54;68.26
11806;BME280;5960;42.602;23.482;2022-10-14T04:32:08;93606.53;;;12.48;68.83
11806;BME280;5960;42.602;23.482;2022-10-14T04:34:35;93615.94;;;12.58;68.29
11806;BME280;5960;42.602;23.482;2022-10-14T04:37:02;93610.84;;;12.56;68.33
11806;BME280;5960;42.602;23.482;2022-10-14T04:39:28;93604.97;;;12.54;67.17
11806;BME280;5960;42.602;23.482;2022-10-14T04:41:55;93603.63;;;12.37;68.00
11806;BME280;5960;42.602;23.482;2022-10-14T04:44:22;93596.06;;;12.27;67.86
11806;BME280;5960;42.602;23.482;2022-10-14T04:46:49;93605.19;;;12.17;68.38
11806;BME280;5960;42.602;23.482;2022-10-14T04:49:17;93592.50;;;11.99;69.65
11806;BME280;5960;42.602;23.482;2022-10-14T04:51:44;93594.84;;;11.94;69.53
11806;BME280;5960;42.602;23.482;2022-10-14T04:54:10;93596.56;;;12.02;69.59
11806;BME280;5960;42.602;23.482;2022-10-14T04:56:37;93593.38;;;12.13;71.18
11806;BME280;5960;42.602;23.482;2022-10-14T04:59:04;93589.13;;;12.19;71.28
11806;BME280;5960;42.602;23.482;2022-10-14T05:01:31;93596.53;;;12.37;70.34
11806;BME280;5960;42.602;23.482;2022-10-14T05:03:58;93594.72;;;12.44;68.57
11806;BME280;5960;42.602;23.482;2022-10-14T05:06:26;93592.78;;;12.67;70.66
11806;BME280;5960;42.602;23.482;2022-10-14T05:08:53;93592.16;;;12.64;69.24
11806;BME280;5960;42.602;23.482;2022-10-14T05:11:19;93582.22;;;12.67;67.42
11806;BME280;5960;42.602;23.482;2022-10-14T05:13:46;93583.03;;;12.67;67.38
11806;BME280;5960;42.602;23.482;2022-10-14T05:16:13;93586.50;;;12.68;66.87
11806;BME280;5960;42.602;23.482;2022-10-14T05:18:40;93585.47;;;12.69;67.16
11806;BME280;5960;42.602;23.482;2022-10-14T05:21:07;93571.66;;;12.67;67.63
11806;BME280;5960;42.602;23.482;2022-10-14T05:23:35;93577.84;;;12.39;68.76
11806;BME280;5960;42.602;23.482;2022-10-14T05:26:02;93576.56;;;12.21;69.88
11806;BME280;5960;42.602;23.482;2022-10-14T05:28:29;93584.19;;;12.02;71.31
11806;BME280;5960;42.602;23.482;2022-10-14T05:30:55;93577.84;;;11.97;71.76
11806;BME280;5960;42.602;23.482;2022-10-14T05:33:22;93587.50;;;12.18;70.03
11806;BME280;5960;42.602;23.482;2022-10-14T05:35:49;93585.50;;;12.27;69.47
11806;BME280;5960;42.602;23.482;2022-10-14T05:38:16;93581.88;;;12.28;69.71
11806;BME280;5960;42.602;23.482;2022-10-14T05:40:50;93589.88;;;12.48;69.56
11806;BME280;5960;42.602;23.482;2022-10-14T05:43:17;93594.41;;;12.61;67.41
11806;BME280;5960;42.602;23.482;2022-10-14T05:45:44;93599.31;;;12.71;67.16
11806;BME280;5960;42.602;23.482;2022-10-14T05:48:11;93603.00;;;12.83;67.00
11806;BME280;5960;42.602;23.482;2022-10-14T05:50:38;93596.94;;;12.89;66.22
11806;BME280;5960;42.602;23.482;2022-10-14T05:53:05;93606.28;;;12.92;65.85
11806;BME280;5960;42.602;23.482;2022-10-14T05:55:31;93607.88;;;12.79;65.87
11806;BME280;5960;42.602;23.482;2022-10-14T05:57:59;93609.69;;;12.79;67.49
11806;BME280;5960;42.602;23.482;2022-10-14T06:00:26;93616.06;;;12.91;65.95
11806;BME280;5960;42.602;23.482;2022-10-14T06:02:55;93622.19;;;12.99;63.78
11806;BME280;5960;42.602;23.482;2022-10-14T06:05:22;93625.34;;;12.74;64.58
11806;BME280;5960;42.602;23.482;2022-10-14T06:07:49;93625.47;;;12.52;64.82
11806;BME280;5960;42.602;23.482;2022-10-14T06:10:16;93629.13;;;12.51;65.18
11806;BME280;5960;42.602;23.482;2022-10-14T06:12:43;93624.84;;;12.50;65.20
11806;BME280;5960;42.602;23.482;2022-10-14T06:15:11;93635.72;;;12.33;66.22
11806;BME280;5960;42.602;23.482;2022-10-14T06:17:38;93638.16;;;12.28;66.91
11806;BME280;5960;42.602;23.482;2022-10-14T06:20:05;93627.06;;;12.46;65.77
11806;BME280;5960;42.602;23.482;2022-10-14T06:22:32;93633.59;;;12.57;65.39
11806;BME280;5960;42.602;23.482;2022-10-14T06:24:59;93636.09;;;12.66;64.94
11806;BME280;5960;42.602;23.482;2022-10-14T06:27:26;93635.09;;;12.67;64.60
11806;BME280;5960;42.602;23.482;2022-10-14T06:29:53;93628.63;;;12.76;65.20
11806;BME280;5960;42.602;23.482;2022-10-14T06:32:21;93631.09;;;12.91;64.81
11806;BME280;5960;42.602;23.482;2022-10-14T06:34:48;93636.03;;;13.14;64.23
11806;BME280;5960;42.602;23.482;2022-10-14T06:37:15;93637.66;;;13.15;63.56
11806;BME280;5960;42.602;23.482;2022-10-14T06:39:41;93648.03;;;13.10;63.68
11806;BME280;5960;42.602;23.482;2022-10-14T06:42:09;93646.19;;;13.04;63.98
11806;BME280;5960;42.602;23.482;2022-10-14T06:44:36;93637.47;;;13.17;64.17
11806;BME280;5960;42.602;23.482;2022-10-14T06:47:04;93643.75;;;13.16;63.46
11806;BME280;5960;42.602;23.482;2022-10-14T06:49:32;93638.28;;;13.11;62.92
11806;BME280;5960;42.602;23.482;2022-10-14T06:51:59;93639.31;;;13.16;63.95
11806;BME280;5960;42.602;23.482;2022-10-14T06:54:26;93642.41;;;13.40;62.18
11806;BME280;5960;42.602;23.482;2022-10-14T06:56:53;93637.94;;;13.47;62.75
11806;BME280;5960;42.602;23.482;2022-10-14T06:59:19;93636.94;;;13.62;62.18
11806;BME280;5960;42.602;23.482;2022-10-14T07:01:46;93631.84;;;13.74;61.87
11806;BME280;5960;42.602;23.482;2022-10-14T07:04:13;93638.38;;;13.84;61.59
11806;BME280;5960;42.602;23.482;2022-10-14T07:06:41;93635.69;;;13.98;60.71
11806;BME280;5960;42.602;23.482;2022-10-14T07:09:08;93628.78;;;14.10;61.00
11806;BME280;5960;42.602;23.482;2022-10-14T07:11:35;93633.41;;;14.28;61.31
11806;BME280;5960;42.602;23.482;2022-10-14T07:14:02;93636.25;;;14.47;60.39
11806;BME280;5960;42.602;23.482;2022-10-14T07:16:28;93643.97;;;14.49;59.69
11806;BME280;5960;42.602;23.482;2022-10-14T07:18:55;93637.84;;;14.55;59.40
11806;BME280;5960;42.602;23.482;2022-10-14T07:21:22;93634.56;;;14.73;58.86
11806;BME280;5960;42.602;23.482;2022-10-14T07:23:50;93626.75;;;14.85;58.16
11806;BME280;5960;42.602;23.482;2022-10-14T07:26:17;93627.59;;;14.79;58.06
11806;BME280;5960;42.602;23.482;2022-10-14T07:28:43;93632.03;;;14.92;58.22
11806;BME280;5960;42.602;23.482;2022-10-14T07:31:10;93632.16;;;15.03;57.89
11806;BME280;5960;42.602;23.482;2022-10-14T07:33:39;93627.97;;;15.21;57.24
11806;BME280;5960;42.602;23.482;2022-10-14T07:36:08;93627.75;;;15.29;55.70
11806;BME280;5960;42.602;23.482;2022-10-14T07:38:35;93635.88;;;14.89;57.88
11806;BME280;5960;42.602;23.482;2022-10-14T07:41:05;93635.53;;;14.79;57.06
11806;BME280;5960;42.602;23.482;2022-10-14T07:43:33;93640.41;;;14.88;57.87
11806;BME280;5960;42.602;23.482;2022-10-14T07:46:02;93634.97;;;15.15;56.86
11806;BME280;5960;42.602;23.482;2022-10-14T07:48:33;93639.78;;;14.86;56.27
11806;BME280;5960;42.602;23.482;2022-10-14T07:51:00;93638.88;;;14.40;59.11
11806;BME280;5960;42.602;23.482;2022-10-14T07:53:27;93636.78;;;14.63;59.28
11806;BME280;5960;42.602;23.482;2022-10-14T07:55:56;93638.81;;;14.74;58.85
11806;BME280;5960;42.602;23.482;2022-10-14T07:58:27;93636.16;;;14.81;59.34
11806;BME280;5960;42.602;23.482;2022-10-14T08:00:55;93631.56;;;15.01;58.51
11806;BME280;5960;42.602;23.482;2022-10-14T08:03:23;93626.88;;;14.97;58.34
11806;BME280;5960;42.602;23.482;2022-10-14T08:05:57;93629.44;;;15.17;58.30
11806;BME280;5960;42.602;23.482;2022-10-14T08:08:24;93630.13;;;15.38;56.73
11806;BME280;5960;42.602;23.482;2022-10-14T08:10:59;93623.47;;;15.54;55.65
11806;BME280;5960;42.602;23.482;2022-10-14T08:13:27;93625.50;;;15.84;54.58
11806;BME280;5960;42.602;23.482;2022-10-14T08:15:54;93627.53;;;15.56;53.25
11806;BME280;5960;42.602;23.482;2022-10-14T08:18:21;93622.81;;;15.65;55.72
11806;BME280;5960;42.602;23.482;2022-10-14T08:20:48;93635.41;;;15.70;54.06
11806;BME280;5960;42.602;23.482;2022-10-14T08:23:15;93626.97;;;15.79;53.89
11806;BME280;5960;42.602;23.482;2022-10-14T08:25:43;93629.75;;;15.91;52.13
11806;BME280;5960;42.602;23.482;2022-10-14T08:28:09;93631.66;;;16.09;51.78
11806;BME280;5960;42.602;23.482;2022-10-14T08:30:38;93623.47;;;15.86;52.09
11806;BME280;5960;42.602;23.482;2022-10-14T08:33:05;93625.41;;;15.72;50.96
11806;BME280;5960;42.602;23.482;2022-10-14T08:35:31;93628.91;;;15.65;51.75
11806;BME280;5960;42.602;23.482;2022-10-14T08:38:00;93631.16;;;15.94;51.35
11806;BME280;5960;42.602;23.482;2022-10-14T08:40:27;93632.03;;;16.32;50.12
11806;BME280;5960;42.602;23.482;2022-10-14T08:42:59;93626.88;;;16.37;49.50
11806;BME280;5960;42.602;23.482;2022-10-14T08:45:31;93633.25;;;16.54;52.22
11806;BME280;5960;42.602;23.482;2022-10-14T08:48:03;93628.72;;;16.92;50.79
11806;BME280;5960;42.602;23.482;2022-10-14T08:50:39;93631.91;;;17.01;48.96
11806;BME280;5960;42.602;23.482;2022-10-14T08:53:12;93634.91;;;17.05;49.62
11806;BME280;5960;42.602;23.482;2022-10-14T08:55:41;93634.56;;;17.32;51.98
11806;BME280;5960;42.602;23.482;2022-10-14T08:58:12;93632.31;;;17.47;48.49
11806;BME280;5960;42.602;23.482;2022-10-14T09:00:41;93634.59;;;17.43;47.58
11806;BME280;5960;42.602;23.482;2022-10-14T09:03:20;93633.19;;;16.98;48.82
11806;BME280;5960;42.602;23.482;2022-10-14T09:05:54;93625.97;;;16.24;50.95
11806;BME280;5960;42.602;23.482;2022-10-14T09:08:26;93629.88;;;16.03;49.80
11806;BME280;5960;42.602;23.482;2022-10-14T09:10:55;93629.41;;;15.81;51.69
11806;BME280;5960;42.602;23.482;2022-10-14T09:13:30;93627.22;;;15.71;52.64
11806;BME280;5960;42.602;23.482;2022-10-14T09:16:03;93628.59;;;15.80;53.01
11806;BME280;5960;42.602;23.482;2022-10-14T09:18:36;93632.47;;;15.78;52.70
11806;BME280;5960;42.602;23.482;2022-10-14T09:21:17;93624.38;;;15.98;52.96
11806;BME280;5960;42.602;23.482;2022-10-14T09:23:49;93625.53;;;16.28;51.43
11806;BME280;5960;42.602;23.482;2022-10-14T09:26:21;93627.00;;;16.23;50.83
11806;BME280;5960;42.602;23.482;2022-10-14T16:10:18;93550.63;;;13.41;56.68
11806;BME280;5960;42.602;23.482;2022-10-14T16:12:45;93554.28;;;13.53;56.27
11806;BME280;5960;42.602;23.482;2022-10-14T16:15:24;93564.84;;;13.66;55.06
11806;BME280;5960;42.602;23.482;2022-10-14T16:17:52;93555.47;;;13.77;53.63
11806;BME280;5960;42.602;23.482;2022-10-14T16:20:19;93552.38;;;13.94;53.09
11806;BME280;5960;42.602;23.482;2022-10-14T16:22:46;93559.69;;;14.05;53.11
11806;BME280;5960;42.602;23.482;2022-10-14T16:25:19;93559.06;;;14.10;53.98
11806;BME280;5960;42.602;23.482;2022-10-14T16:27:48;93564.34;;;14.23;53.51
11806;BME280;5960;42.602;23.482;2022-10-14T16:30:15;93553.78;;;14.10;54.42
11806;BME280;5960;42.602;23.482;2022-10-14T16:32:42;93562.97;;;14.07;54.00
11806;BME280;5960;42.602;23.482;2022-10-14T16:35:09;93555.81;;;14.08;54.79
11806;BME280;5960;42.602;23.482;2022-10-14T16:37:36;93564.00;;;13.99;55.00
11806;BME280;5960;42.602;23.482;2022-10-14T16:40:05;93545.66;;;13.91;55.61
11806;BME280;5960;42.602;23.482;2022-10-14T16:42:34;93560.31;;;13.94;56.25
11806;BME280;5960;42.602;23.482;2022-10-14T16:45:00;93557.69;;;13.94;56.56
11806;BME280;5960;42.602;23.482;2022-10-14T16:47:27;93554.44;;;13.85;56.41
11806;BME280;5960;42.602;23.482;2022-10-14T16:49:54;93547.31;;;13.72;56.80
11806;BME280;5960;42.602;23.482;2022-10-14T16:52:21;93552.44;;;13.67;56.81
11806;BME280;5960;42.602;23.482;2022-10-14T16:54:49;93554.25;;;13.73;56.54
11806;BME280;5960;42.602;23.482;2022-10-14T16:57:15;93552.81;;;13.77;56.28
11806;BME280;5960;42.602;23.482;2022-10-14T16:59:44;93554.25;;;13.73;56.65
11806;BME280;5960;42.602;23.482;2022-10-14T17:02:12;93554.06;;;13.75;56.71
11806;BME280;5960;42.602;23.482;2022-10-14T17:04:40;93557.94;;;13.79;56.66
11806;BME280;5960;42.602;23.482;2022-10-14T17:07:08;93564.03;;;13.79;56.28
11806;BME280;5960;42.602;23.482;2022-10-14T17:09:36;93562.19;;;13.87;56.38
11806;BME280;5960;42.602;23.482;2022-10-14T17:12:04;93557.50;;;13.82;56.50
11806;BME280;5960;42.602;23.482;2022-10-14T17:14:32;93552.41;;;13.80;56.75
11806;BME280;5960;42.602;23.482;2022-10-14T17:17:00;93557.06;;;13.98;57.97
11806;BME280;5960;42.602;23.482;2022-10-14T17:19:27;93559.94;;;13.90;56.04
11806;BME280;5960;42.602;23.482;2022-10-14T17:21:54;93558.28;;;13.96;54.51
11806;BME280;5960;42.602;23.482;2022-10-14T17:24:20;93556.06;;;13.86;54.01
11806;BME280;5960;42.602;23.482;2022-10-14T17:26:47;93555.25;;;13.86;52.72
11806;BME280;5960;42.602;23.482;2022-10-14T17:29:14;93552.44;;;13.67;52.82
11806;BME280;5960;42.602;23.482;2022-10-14T17:31:41;93550.59;;;13.67;53.61
11806;BME280;5960;42.602;23.482;2022-10-14T17:34:09;93550.81;;;13.66;53.16
11806;BME280;5960;42.602;23.482;2022-10-14T17:36:36;93547.94;;;13.67;53.21
11806;BME280;5960;42.602;23.482;2022-10-14T17:39:03;93557.13;;;13.72;52.68
11806;BME280;5960;42.602;23.482;2022-10-14T17:41:30;93561.19;;;13.74;52.05
11806;BME280;5960;42.602;23.482;2022-10-14T17:43:58;93554.03;;;13.81;52.15
11806;BME280;5960;42.602;23.482;2022-10-14T17:46:26;93544.66;;;13.86;52.16
11806;BME280;5960;42.602;23.482;2022-10-14T17:48:55;93553.63;;;13.84;51.78
11806;BME280;5960;42.602;23.482;2022-10-14T17:51:25;93555.28;;;13.72;52.35
11806;BME280;5960;42.602;23.482;2022-10-14T17:53:53;93557.50;;;13.75;51.93
11806;BME280;5960;42.602;23.482;2022-10-14T17:56:21;93557.50;;;13.75;51.99
11806;BME280;5960;42.602;23.482;2022-10-14T17:58:51;93559.97;;;13.70;52.16
11806;BME280;5960;42.602;23.482;2022-10-14T18:01:18;93554.88;;;13.68;51.89
11806;BME280;5960;42.602;23.482;2022-10-14T18:03:46;93563.81;;;13.74;51.29
11806;BME280;5960;42.602;23.482;2022-10-14T18:06:15;93558.13;;;13.71;51.44
11806;BME280;5960;42.602;23.482;2022-10-14T18:08:45;93558.94;;;13.71;51.75
11806;BME280;5960;42.602;23.482;2022-10-14T18:11:14;93559.53;;;13.73;51.50
11806;BME280;5960;42.602;23.482;2022-10-14T18:13:41;93568.72;;;13.71;53.00
11806;BME280;5960;42.602;23.482;2022-10-14T18:16:09;93574.81;;;13.71;53.71
11806;BME280;5960;42.602;23.482;2022-10-14T18:18:37;93570.34;;;13.72;54.29
11806;BME280;5960;42.602;23.482;2022-10-14T18:21:05;93570.97;;;13.74;54.82
11806;BME280;5960;42.602;23.482;2022-10-14T18:23:33;93569.34;;;13.73;55.21
11806;BME280;5960;42.602;23.482;2022-10-14T18:26:03;93567.28;;;13.81;54.99
11806;BME280;5960;42.602;23.482;2022-10-14T18:28:31;93567.25;;;13.88;54.62
11806;BME280;5960;42.602;23.482;2022-10-14T18:31:04;93567.50;;;13.87;54.29
11806;BME280;5960;42.602;23.482;2022-10-14T18:33:32;93566.47;;;13.81;54.89
11806;BME280;5960;42.602;23.482;2022-10-14T18:35:59;93575.44;;;13.73;55.74
11806;BME280;5960;42.602;23.482;2022-10-14T18:38:26;93564.84;;;13.66;56.34
11806;BME280;5960;42.602;23.482;2022-10-14T18:40:57;93568.94;;;13.56;56.45
11806;BME280;5960;42.602;23.482;2022-10-14T18:43:26;93563.66;;;13.69;56.04
11806;BME280;5960;42.602;23.482;2022-10-14T18:45:53;93564.84;;;13.66;56.10
11806;BME280;5960;42.602;23.482;2022-10-14T18:48:19;93566.50;;;13.41;56.42
11806;BME280;5960;42.602;23.482;2022-10-14T18:50:54;93565.22;;;13.30;56.79
11806;BME280;5960;42.602;23.482;2022-10-14T18:53:22;93578.69;;;13.21;57.01
11806;BME280;5960;42.602;23.482;2022-10-14T18:55:49;93573.78;;;13.32;56.70
11806;BME280;5960;42.602;23.482;2022-10-14T18:58:15;93574.63;;;13.32;56.98
11806;BME280;5960;42.602;23.482;2022-10-14T19:00:44;93573.38;;;13.35;57.37
11806;BME280;5960;42.602;23.482;2022-10-14T19:03:10;93570.53;;;13.30;56.87
11806;BME280;5960;42.602;23.482;2022-10-14T19:05:37;93572.97;;;13.24;57.31
11806;BME280;5960;42.602;23.482;2022-10-14T19:08:04;93580.53;;;13.34;57.12
11806;BME280;5960;42.602;23.482;2022-10-14T19:10:31;93578.69;;;13.35;56.76
11806;BME280;5960;42.602;23.482;2022-10-14T19:12:57;93578.28;;;13.38;56.46
11806;BME280;5960;42.602;23.482;2022-10-14T19:15:24;93589.66;;;13.32;56.62
11806;BME280;5960;42.602;23.482;2022-10-14T19:17:53;93592.72;;;13.29;57.05
11806;BME280;5960;42.602;23.482;2022-10-14T19:20:20;93589.66;;;13.25;57.26
11806;BME280;5960;42.602;23.482;2022-10-14T19:22:47;93592.50;;;13.17;57.75
11806;BME280;5960;42.602;23.482;2022-10-14T19:25:14;93596.94;;;13.03;58.23
11806;BME280;5960;42.602;23.482;2022-10-14T19:27:41;93596.13;;;13.02;58.51
11806;BME280;5960;42.602;23.482;2022-10-14T19:30:09;93596.53;;;13.06;58.72
11806;BME280;5960;42.602;23.482;2022-10-14T19:32:36;93596.13;;;13.02;58.28
11806;BME280;5960;42.602;23.482;2022-10-14T19:35:04;93593.09;;;13.12;58.02
11806;BME280;5960;42.602;23.482;2022-10-14T19:37:31;93599.81;;;13.08;57.71
11806;BME280;5960;42.602;23.482;2022-10-14T19:39:58;93608.53;;;13.02;58.11
11806;BME280;5960;42.602;23.482;2022-10-14T19:42:24;93611.00;;;12.97;59.07
11806;BME280;5960;42.602;23.482;2022-10-14T19:44:51;93609.13;;;12.90;59.00
11806;BME280;5960;42.602;23.482;2022-10-14T19:47:18;93616.47;;;12.95;58.46
11806;BME280;5960;42.602;23.482;2022-10-14T19:49:44;93607.13;;;12.99;58.81
11806;BME280;5960;42.602;23.482;2022-10-14T19:52:13;93610.00;;;13.11;58.74
11806;BME280;5960;42.602;23.482;2022-10-14T19:54:39;93617.34;;;13.22;57.05